Time;durP1;ratioP1;P1;durP2;ratioP2;P2;SDS_P1;SDS_P2;PMS_P1;PMS_P2;Temp;Humidity;BMP_temperature;BMP_pressure;BME280_temperature;BME280_humidity;BME280_pressure;Samples;Min_cycle;Max_cycle;Signal;HPM_P1;HPM_P2
2022/10/16 00:01:06;;;;;;;9.60;9.30;;;16.50;1.00;;;;;;4970023;28;20470;-80
2022/10/16 00:03:35;;;;;;;9.43;9.23;;;16.40;1.00;;;;;;4968790;28;20528;-79
2022/10/16 00:06:03;;;;;;;9.63;9.40;;;16.40;1.00;;;;;;4970709;28;20494;-80
2022/10/16 00:08:32;;;;;;;9.10;8.90;;;16.40;1.00;;;;;;4966602;28;20516;-80
2022/10/16 00:11:01;;;;;;;10.13;9.70;;;16.40;1.00;;;;;;4966795;28;20544;-79
2022/10/16 00:13:30;;;;;;;9.60;9.30;;;16.40;1.00;;;;;;4966498;28;20575;-79
2022/10/16 00:16:00;;;;;;;9.67;9.47;;;16.40;1.00;;;;;;4964766;28;20489;-80
2022/10/16 00:18:28;;;;;;;10.50;10.10;;;16.40;1.00;;;;;;4967266;28;20461;-80
2022/10/16 00:21:02;;;;;;;10.53;10.00;;;16.50;1.00;;;;;;4966593;28;20904;-81
2022/10/16 00:23:30;;;;;;;9.97;9.67;;;16.40;1.00;;;;;;4969044;28;20457;-81
2022/10/16 00:25:59;;;;;;;9.90;9.70;;;16.40;1.00;;;;;;4968925;28;20545;-80
2022/10/16 00:28:27;;;;;;;11.00;10.53;;;16.30;1.00;;;;;;4969333;28;20556;-80
2022/10/16 00:30:56;;;;;;;10.33;10.03;;;16.40;1.00;;;;;;4963717;28;20811;-80
2022/10/16 00:33:26;;;;;;;10.00;9.60;;;16.40;1.00;;;;;;4967515;28;20475;-80
2022/10/16 00:35:54;;;;;;;10.03;9.80;;;16.40;1.00;;;;;;4964739;28;20502;-82
2022/10/16 00:38:22;;;;;;;9.57;9.20;;;16.40;1.00;;;;;;4965540;28;20462;-80
2022/10/16 00:40:50;;;;;;;9.60;9.30;;;16.40;1.00;;;;;;4975930;28;20501;-81
2022/10/16 00:43:39;;;;;;;9.80;9.40;;;16.40;1.00;;;;;;4966019;28;20482;-81
2022/10/16 00:46:14;;;;;;;9.90;9.67;;;16.40;1.00;;;;;;4966142;28;20541;-81
2022/10/16 00:48:46;;;;;;;9.77;9.57;;;16.30;1.00;;;;;;4967823;28;20499;-81
2022/10/16 00:51:15;;;;;;;10.27;10.07;;;16.30;1.00;;;;;;4965761;28;20461;-80
2022/10/16 00:53:44;;;;;;;9.40;9.10;;;16.20;1.00;;;;;;4961481;28;20551;-81
2022/10/16 00:56:12;;;;;;;9.57;9.27;;;16.30;1.00;;;;;;4968578;28;20473;-80
2022/10/16 00:58:41;;;;;;;9.60;9.30;;;16.40;1.00;;;;;;4967522;28;20477;-81
2022/10/16 01:01:09;;;;;;;10.17;9.27;;;16.40;1.00;;;;;;4965677;28;20457;-80
2022/10/16 01:03:38;;;;;;;8.90;8.70;;;16.40;1.00;;;;;;4962847;28;20536;-80
2022/10/16 01:06:24;;;;;;;9.40;9.20;;;16.40;1.00;;;;;;4966591;28;20494;-80
2022/10/16 01:09:13;;;;;;;9.80;9.50;;;16.40;1.00;;;;;;4969585;28;20580;-80
2022/10/16 01:11:49;;;;;;;9.80;9.37;;;16.30;1.00;;;;;;4968504;28;20821;-81
2022/10/16 01:14:23;;;;;;;9.20;9.00;;;16.30;1.00;;;;;;4964890;28;20492;-80
2022/10/16 01:16:59;;;;;;;10.00;9.40;;;16.30;1.00;;;;;;4968272;28;20465;-80
2022/10/16 01:19:45;;;;;;;8.70;8.50;;;16.30;1.00;;;;;;4969675;28;21126;-80
2022/10/16 01:22:15;;;;;;;9.23;9.03;;;16.30;1.00;;;;;;4970595;28;20565;-81
2022/10/16 01:24:49;;;;;;;8.80;8.60;;;16.20;1.00;;;;;;4970899;28;20479;-79
2022/10/16 01:27:26;;;;;;;8.93;8.70;;;16.30;1.00;;;;;;4965303;28;20554;-79
2022/10/16 01:30:00;;;;;;;9.87;9.57;;;16.20;1.00;;;;;;4968791;28;21107;-79
2022/10/16 01:32:34;;;;;;;8.87;8.67;;;16.20;1.00;;;;;;4968199;28;20499;-80
2022/10/16 01:35:10;;;;;;;9.47;9.17;;;16.20;1.00;;;;;;4967389;28;20877;-80
2022/10/16 01:37:42;;;;;;;8.90;8.60;;;16.30;1.00;;;;;;4968830;28;20599;-82
2022/10/16 01:40:13;;;;;;;9.23;8.70;;;16.30;1.00;;;;;;4969866;28;20902;-80
2022/10/16 01:42:45;;;;;;;8.70;8.50;;;16.30;1.00;;;;;;4968223;28;20950;-81
2022/10/16 01:45:18;;;;;;;8.50;8.20;;;16.20;1.00;;;;;;4964930;28;20480;-80
2022/10/16 01:47:47;;;;;;;8.63;8.27;;;16.20;1.00;;;;;;4968950;28;20563;-80
2022/10/16 01:50:18;;;;;;;8.80;8.50;;;16.30;1.00;;;;;;4966649;28;20480;-80
2022/10/16 01:52:50;;;;;;;8.87;8.57;;;16.30;1.00;;;;;;4962330;28;20517;-79
2022/10/16 01:55:23;;;;;;;8.93;8.63;;;16.20;1.00;;;;;;4967308;28;20553;-81
2022/10/16 01:57:53;;;;;;;8.77;8.57;;;16.30;1.00;;;;;;4968795;28;20463;-81
2022/10/16 02:00:23;;;;;;;9.20;8.60;;;16.30;1.00;;;;;;4965949;28;20572;-81
2022/10/16 02:02:55;;;;;;;9.10;8.70;;;16.30;1.00;;;;;;4963730;28;20548;-81
2022/10/16 02:05:27;;;;;;;8.40;8.20;;;16.30;1.00;;;;;;4967439;28;20465;-80
2022/10/16 02:07:55;;;;;;;8.40;8.20;;;16.30;1.00;;;;;;4969007;28;20555;-80
2022/10/16 02:10:30;;;;;;;8.93;8.70;;;16.30;1.00;;;;;;4966940;28;20489;-79
2022/10/16 02:13:06;;;;;;;8.50;8.33;;;16.30;1.00;;;;;;4966220;28;20472;-80
2022/10/16 02:15:34;;;;;;;8.00;7.77;;;16.30;1.00;;;;;;4960299;28;20491;-80
2022/10/16 02:18:03;;;;;;;9.37;9.07;;;16.30;1.00;;;;;;4966902;28;20516;-81
2022/10/16 02:20:37;;;;;;;8.53;8.13;;;16.40;1.00;;;;;;4967486;28;21067;-80
2022/10/16 02:23:08;;;;;;;9.00;8.50;;;16.40;1.00;;;;;;4967971;28;20467;-80
2022/10/16 02:25:41;;;;;;;8.97;8.57;;;16.40;1.00;;;;;;4961447;28;20540;-79
2022/10/16 02:28:14;;;;;;;8.50;8.30;;;16.50;1.00;;;;;;4951215;28;20556;-81
2022/10/16 02:30:46;;;;;;;8.80;8.33;;;16.50;1.00;;;;;;4963689;28;20466;-80
2022/10/16 02:33:16;;;;;;;8.70;8.40;;;16.50;1.00;;;;;;4965602;28;21299;-81
2022/10/16 02:35:47;;;;;;;8.37;8.17;;;16.50;1.00;;;;;;4966948;28;20992;-81
2022/10/16 02:38:17;;;;;;;8.50;8.20;;;16.50;1.00;;;;;;4967617;28;20556;-81
2022/10/16 02:40:45;;;;;;;8.53;8.13;;;16.40;1.00;;;;;;4972499;28;20457;-81
2022/10/16 02:43:16;;;;;;;8.80;8.30;;;16.40;1.00;;;;;;4968431;28;20575;-80
2022/10/16 02:45:44;;;;;;;8.80;8.00;;;16.40;1.00;;;;;;4969741;28;20464;-80
2022/10/16 02:48:13;;;;;;;8.60;8.33;;;16.40;1.00;;;;;;4966300;28;20459;-79
2022/10/16 02:50:40;;;;;;;8.30;8.00;;;16.40;1.00;;;;;;4973339;28;21011;-81
2022/10/16 02:53:09;;;;;;;8.33;8.13;;;16.40;1.00;;;;;;4970197;28;21117;-80
2022/10/16 02:55:37;;;;;;;8.33;8.10;;;16.40;1.00;;;;;;4965842;28;20524;-81
2022/10/16 02:58:05;;;;;;;8.60;8.27;;;16.40;1.00;;;;;;4967565;28;20474;-81
2022/10/16 03:00:34;;;;;;;8.70;8.50;;;16.40;1.00;;;;;;4965558;28;20601;-80
2022/10/16 03:03:02;;;;;;;8.43;8.03;;;16.40;1.00;;;;;;4966471;28;20460;-81
2022/10/16 03:05:30;;;;;;;9.07;8.67;;;16.40;1.00;;;;;;4973254;28;20449;-80
2022/10/16 03:08:00;;;;;;;8.17;7.97;;;16.40;1.00;;;;;;4968956;28;20466;-80
2022/10/16 03:10:28;;;;;;;8.50;8.20;;;16.30;1.00;;;;;;4967309;28;20991;-81
2022/10/16 03:12:56;;;;;;;8.47;8.20;;;16.40;1.00;;;;;;4972128;28;20565;-80
2022/10/16 03:15:24;;;;;;;7.90;7.80;;;16.40;1.00;;;;;;4970194;28;20481;-79
2022/10/16 03:17:53;;;;;;;8.77;8.47;;;16.40;1.00;;;;;;4972789;28;20462;-80
2022/10/16 03:20:21;;;;;;;8.50;8.20;;;16.40;1.00;;;;;;4970310;28;20568;-80
2022/10/16 03:22:49;;;;;;;8.13;7.93;;;16.40;1.00;;;;;;4973554;28;20748;-81
2022/10/16 03:25:17;;;;;;;8.77;8.20;;;16.40;1.00;;;;;;4971602;28;20812;-79
2022/10/16 03:27:45;;;;;;;8.47;8.07;;;16.40;1.00;;;;;;4968372;28;20453;-79
2022/10/16 03:30:14;;;;;;;8.63;8.17;;;16.30;1.00;;;;;;4969103;28;20577;-81
2022/10/16 03:32:42;;;;;;;8.27;8.07;;;16.30;1.00;;;;;;4969216;28;20568;-79
2022/10/16 03:35:11;;;;;;;8.73;8.40;;;16.30;1.00;;;;;;4969258;28;20571;-80
2022/10/16 03:37:39;;;;;;;8.20;7.70;;;16.20;1.00;;;;;;4967972;28;20560;-80
2022/10/16 03:40:08;;;;;;;8.00;7.80;;;16.20;1.00;;;;;;4974205;28;20583;-80
2022/10/16 03:42:36;;;;;;;8.03;7.83;;;16.20;1.00;;;;;;4969126;28;20540;-81
2022/10/16 03:45:05;;;;;;;8.00;7.70;;;16.10;1.00;;;;;;4970338;28;20946;-80
2022/10/16 03:47:33;;;;;;;8.33;8.03;;;16.10;1.00;;;;;;4972788;28;20975;-80
2022/10/16 03:50:01;;;;;;;8.10;7.90;;;16.10;1.00;;;;;;4965302;28;20697;-80
2022/10/16 03:52:31;;;;;;;8.40;8.10;;;16.00;1.00;;;;;;4967534;28;20503;-81
2022/10/16 03:55:00;;;;;;;8.27;8.07;;;16.00;1.00;;;;;;4970235;28;20487;-80
2022/10/16 03:57:28;;;;;;;8.83;8.43;;;16.00;1.00;;;;;;4970389;28;20460;-80
2022/10/16 03:59:57;;;;;;;8.87;8.50;;;16.00;1.00;;;;;;4968805;28;20476;-81
2022/10/16 04:02:25;;;;;;;7.97;7.73;;;16.00;1.00;;;;;;4960248;28;20457;-80
2022/10/16 04:04:53;;;;;;;7.77;7.57;;;16.00;1.00;;;;;;4968985;28;20457;-82
2022/10/16 04:07:21;;;;;;;8.50;8.10;;;16.00;1.00;;;;;;4971533;28;20460;-82
2022/10/16 04:09:51;;;;;;;8.23;8.03;;;16.00;1.00;;;;;;4966111;28;20472;-81
2022/10/16 04:12:20;;;;;;;8.20;7.93;;;16.00;1.00;;;;;;4970070;28;20540;-81
2022/10/16 04:14:48;;;;;;;8.47;7.90;;;15.90;1.00;;;;;;4963138;28;20986;-80
2022/10/16 04:17:16;;;;;;;9.37;8.97;;;15.90;1.00;;;;;;4968142;28;20560;-79
2022/10/16 04:19:44;;;;;;;8.67;8.27;;;15.90;1.00;;;;;;4966381;28;20520;-80
2022/10/16 04:22:12;;;;;;;8.43;7.83;;;15.90;1.00;;;;;;4968524;28;20467;-79
2022/10/16 04:24:40;;;;;;;7.80;7.60;;;15.90;1.00;;;;;;4963723;28;20539;-79
2022/10/16 04:27:10;;;;;;;8.20;7.90;;;15.90;1.00;;;;;;4970345;28;20491;-81
2022/10/16 04:29:38;;;;;;;7.83;7.63;;;15.90;1.00;;;;;;4970397;28;20495;-80
2022/10/16 04:32:06;;;;;;;8.03;7.63;;;15.90;1.00;;;;;;4971504;28;20466;-80
2022/10/16 04:34:34;;;;;;;7.63;7.40;;;15.90;1.00;;;;;;4969095;28;20893;-80
2022/10/16 04:37:02;;;;;;;8.23;7.87;;;15.90;1.00;;;;;;4966337;28;21223;-80
2022/10/16 04:39:30;;;;;;;7.77;7.60;;;16.00;1.00;;;;;;4967822;28;20474;-80
2022/10/16 04:41:58;;;;;;;7.73;7.40;;;16.00;1.00;;;;;;4965135;28;20481;-80
2022/10/16 04:44:28;;;;;;;7.70;7.50;;;15.90;1.00;;;;;;4968219;28;20475;-80
2022/10/16 04:46:56;;;;;;;7.90;7.70;;;15.80;1.00;;;;;;4952440;28;20457;-81
2022/10/16 04:49:24;;;;;;;8.30;8.00;;;15.90;1.00;;;;;;4964310;28;20521;-81
2022/10/16 04:51:52;;;;;;;7.80;7.70;;;15.80;1.00;;;;;;4975811;28;20556;-81
2022/10/16 04:54:20;;;;;;;7.97;7.77;;;15.80;1.00;;;;;;4969087;28;20468;-80
2022/10/16 04:56:50;;;;;;;8.37;8.07;;;15.80;1.00;;;;;;4968225;28;20504;-79
2022/10/16 04:59:18;;;;;;;8.50;8.23;;;15.80;1.00;;;;;;4966934;28;20575;-79
2022/10/16 05:01:47;;;;;;;8.00;7.80;;;15.80;1.50;;;;;;4970026;28;20485;-80
2022/10/16 05:04:16;;;;;;;7.97;7.77;;;15.80;4.50;;;;;;4966575;28;20560;-80
2022/10/16 05:06:44;;;;;;;8.10;8.00;;;15.70;7.10;;;;;;4970773;28;20548;-81
2022/10/16 05:09:12;;;;;;;8.70;8.40;;;15.70;1.00;;;;;;4973651;28;20480;-80
2022/10/16 05:11:40;;;;;;;8.47;8.27;;;15.80;1.00;;;;;;4968342;28;20499;-83
2022/10/16 05:14:08;;;;;;;8.57;8.37;;;15.70;1.00;;;;;;4969885;28;20456;-82
2022/10/16 05:16:36;;;;;;;8.47;8.27;;;15.80;1.00;;;;;;4951145;28;20563;-82
2022/10/16 05:19:05;;;;;;;9.07;8.67;;;15.80;1.00;;;;;;4969255;28;20580;-81
2022/10/16 05:21:53;;;;;;;8.27;7.90;;;15.80;1.00;;;;;;4966926;28;20455;-80
2022/10/16 05:24:21;;;;;;;8.70;8.23;;;15.80;1.00;;;;;;4967150;28;20560;-80
2022/10/16 05:26:50;;;;;;;8.43;8.13;;;15.80;1.00;;;;;;4968838;28;20463;-82
2022/10/16 05:29:18;;;;;;;8.10;7.80;;;15.70;1.00;;;;;;4968168;28;20487;-80
2022/10/16 05:31:46;;;;;;;8.47;8.17;;;15.70;1.00;;;;;;4969207;28;20515;-81
2022/10/16 05:34:16;;;;;;;8.30;8.07;;;15.70;1.00;;;;;;4971495;28;20840;-81
2022/10/16 05:36:45;;;;;;;8.17;7.77;;;15.80;1.00;;;;;;4969324;28;20539;-80
2022/10/16 05:39:14;;;;;;;8.23;8.03;;;16.00;1.00;;;;;;4966474;28;20542;-80
2022/10/16 05:41:42;;;;;;;8.40;8.20;;;16.00;1.00;;;;;;4966139;28;20457;-80
2022/10/16 05:44:10;;;;;;;8.30;8.10;;;16.00;1.00;;;;;;4968548;28;20456;-81
2022/10/16 05:46:38;;;;;;;9.40;9.10;;;16.00;1.00;;;;;;4970254;28;20956;-82
2022/10/16 05:49:06;;;;;;;8.20;7.90;;;16.00;1.00;;;;;;4967583;28;20995;-82
2022/10/16 05:51:36;;;;;;;8.17;7.97;;;16.10;1.00;;;;;;4969362;28;21007;-81
2022/10/16 05:54:04;;;;;;;8.20;8.00;;;16.10;1.00;;;;;;4967707;28;20497;-81
2022/10/16 05:56:32;;;;;;;8.20;7.80;;;16.20;1.00;;;;;;4969021;28;20487;-80
2022/10/16 05:59:00;;;;;;;8.13;7.93;;;16.20;1.00;;;;;;4961505;28;20472;-80
2022/10/16 06:01:28;;;;;;;8.20;7.90;;;16.10;1.00;;;;;;4945703;28;20491;-84
2022/10/16 06:03:56;;;;;;;8.20;7.97;;;16.20;1.00;;;;;;4968271;28;20556;-81
2022/10/16 06:06:26;;;;;;;8.70;8.20;;;16.20;1.00;;;;;;4951346;28;20460;-82
2022/10/16 06:08:56;;;;;;;8.57;8.33;;;16.20;1.00;;;;;;4966030;28;20849;-80
2022/10/16 06:11:27;;;;;;;8.20;7.90;;;16.30;1.00;;;;;;4961768;28;20551;-82
2022/10/16 06:13:57;;;;;;;9.73;9.13;;;16.30;1.00;;;;;;4964619;28;20473;-82
2022/10/16 06:16:26;;;;;;;8.17;7.97;;;16.30;1.00;;;;;;4969778;28;20923;-80
2022/10/16 06:18:56;;;;;;;8.60;8.40;;;16.30;1.00;;;;;;4966845;28;20535;-80
2022/10/16 06:21:25;;;;;;;8.47;8.07;;;16.30;1.00;;;;;;4968115;28;21183;-81
2022/10/16 06:23:55;;;;;;;9.07;8.57;;;16.30;1.00;;;;;;4963632;28;20472;-79
2022/10/16 06:26:25;;;;;;;8.70;8.50;;;16.20;1.00;;;;;;4969646;28;20453;-80
2022/10/16 06:28:55;;;;;;;9.13;8.63;;;16.30;1.00;;;;;;4949717;28;20581;-79
2022/10/16 06:31:27;;;;;;;9.40;9.10;;;16.20;1.00;;;;;;4962942;28;21016;-81
2022/10/16 06:33:56;;;;;;;8.73;8.53;;;16.20;1.00;;;;;;4965126;28;20543;-80
2022/10/16 06:36:25;;;;;;;8.77;8.47;;;16.20;1.00;;;;;;4964131;28;20579;-80
2022/10/16 06:38:55;;;;;;;8.97;8.60;;;16.30;1.00;;;;;;4942629;28;20490;-78
2022/10/16 06:41:24;;;;;;;9.20;8.97;;;16.40;1.00;;;;;;4958744;28;21052;-79
2022/10/16 06:43:53;;;;;;;8.80;8.50;;;16.50;1.00;;;;;;4961579;28;21009;-81
2022/10/16 06:46:23;;;;;;;8.67;8.27;;;16.50;1.00;;;;;;4966217;28;20537;-79
2022/10/16 06:48:51;;;;;;;9.50;9.00;;;16.50;1.00;;;;;;4963170;28;20536;-80
2022/10/16 06:51:21;;;;;;;8.77;8.57;;;16.50;1.00;;;;;;4966729;28;20606;-80
2022/10/16 06:53:51;;;;;;;9.57;9.30;;;16.50;1.00;;;;;;4959125;28;20489;-80
2022/10/16 06:56:36;;;;;;;9.33;9.10;;;16.60;1.00;;;;;;4965232;28;20480;-79
2022/10/16 06:59:04;;;;;;;10.13;9.63;;;16.60;1.00;;;;;;4965932;28;20454;-81
2022/10/16 07:01:33;;;;;;;9.00;8.70;;;16.60;1.00;;;;;;4955666;28;20740;-80
2022/10/16 07:04:02;;;;;;;8.97;8.77;;;16.60;1.00;;;;;;4965469;28;20459;-79
2022/10/16 07:06:33;;;;;;;8.83;8.63;;;16.70;1.00;;;;;;4960873;28;20464;-81
2022/10/16 07:09:03;;;;;;;9.47;9.10;;;16.70;1.00;;;;;;4961987;28;20529;-83
2022/10/16 07:11:31;;;;;;;9.03;8.73;;;16.70;1.00;;;;;;4965486;28;21060;-81
2022/10/16 07:14:01;;;;;;;8.83;8.40;;;16.70;1.00;;;;;;4961693;28;20560;-82
2022/10/16 07:16:31;;;;;;;8.97;8.77;;;16.70;1.00;;;;;;4966413;28;20808;-80
2022/10/16 07:19:01;;;;;;;8.90;8.70;;;16.60;1.00;;;;;;4970405;28;20521;-80
2022/10/16 07:21:31;;;;;;;8.50;8.30;;;16.70;1.00;;;;;;4973464;28;20486;-81
2022/10/16 07:24:00;;;;;;;9.30;8.77;;;16.70;1.00;;;;;;4962798;28;20465;-80
2022/10/16 07:26:31;;;;;;;8.50;8.30;;;16.70;1.00;;;;;;4970130;28;20453;-80
2022/10/16 07:29:01;;;;;;;9.30;9.00;;;16.70;1.00;;;;;;4963069;28;20477;-81
2022/10/16 07:31:29;;;;;;;9.20;8.43;;;16.60;1.00;;;;;;4962245;28;20516;-82
2022/10/16 07:33:59;;;;;;;8.93;8.53;;;16.60;1.00;;;;;;4949096;28;20486;-81
2022/10/16 07:36:27;;;;;;;8.70;8.50;;;16.70;1.00;;;;;;4962871;28;20509;-81
2022/10/16 07:38:55;;;;;;;9.00;8.60;;;16.70;1.00;;;;;;4963125;28;20494;-81
2022/10/16 07:41:27;;;;;;;8.70;8.50;;;16.70;1.00;;;;;;4962040;28;20470;-81
2022/10/16 07:43:57;;;;;;;7.97;7.67;;;16.60;1.00;;;;;;4962759;28;20463;-82
2022/10/16 07:46:27;;;;;;;8.30;8.10;;;16.70;1.00;;;;;;4963942;28;20462;-81
2022/10/16 07:48:55;;;;;;;8.50;8.30;;;16.70;1.00;;;;;;4962986;28;20863;-80
2022/10/16 07:51:25;;;;;;;9.10;8.80;;;16.60;1.00;;;;;;4969759;28;20484;-81
2022/10/16 07:53:53;;;;;;;8.20;8.00;;;16.60;1.00;;;;;;4958098;28;20469;-80
2022/10/16 07:56:22;;;;;;;8.70;8.40;;;16.70;1.00;;;;;;4962504;28;20468;-81
2022/10/16 07:58:51;;;;;;;8.97;8.67;;;16.60;1.00;;;;;;4960142;28;20575;-81
2022/10/16 08:01:20;;;;;;;8.53;8.23;;;16.60;1.00;;;;;;4962414;28;21096;-82
2022/10/16 08:03:51;;;;;;;9.10;8.70;;;16.60;1.00;;;;;;4960798;28;20449;-82
2022/10/16 08:06:20;;;;;;;8.47;8.27;;;16.60;1.00;;;;;;4957619;28;20515;-82
2022/10/16 08:08:55;;;;;;;8.93;8.60;;;16.60;1.00;;;;;;4960616;28;20572;-81
2022/10/16 08:11:24;;;;;;;7.90;7.80;;;16.80;1.00;;;;;;4960067;28;20535;-79
2022/10/16 08:13:52;;;;;;;9.53;9.03;;;16.80;1.00;;;;;;4963064;28;20996;-79
2022/10/16 08:16:20;;;;;;;9.00;8.77;;;16.90;1.00;;;;;;4961456;28;20472;-82
2022/10/16 08:18:51;;;;;;;9.53;9.20;;;16.90;1.00;;;;;;4956923;28;20883;-81
2022/10/16 08:21:22;;;;;;;9.27;8.93;;;17.00;1.00;;;;;;4959158;28;20465;-77
2022/10/16 08:23:51;;;;;;;10.07;9.47;;;17.10;99.90;;;;;;4954711;28;20482;-81
2022/10/16 08:26:26;;;;;;;9.43;9.13;;;17.30;99.90;;;;;;4963460;28;20453;-81
2022/10/16 08:28:54;;;;;;;9.33;9.13;;;17.40;99.90;;;;;;4962098;28;20508;-79
2022/10/16 08:31:22;;;;;;;9.50;9.20;;;17.30;99.90;;;;;;4959799;28;20476;-81
2022/10/16 08:33:52;;;;;;;8.67;8.47;;;17.40;99.90;;;;;;4956362;28;21043;-80
2022/10/16 08:36:20;;;;;;;8.87;8.60;;;17.40;99.90;;;;;;4961198;28;20443;-81
2022/10/16 08:38:50;;;;;;;12.17;11.37;;;17.30;99.90;;;;;;4958703;28;20572;-80
2022/10/16 08:41:48;;;;;;;10.50;10.00;;;17.30;99.90;;;;;;4959132;28;20565;-79
2022/10/16 08:44:37;;;;;;;9.33;9.13;;;17.40;99.90;;;;;;4960074;28;20466;-81
2022/10/16 08:47:17;;;;;;;8.90;8.70;;;17.30;99.90;;;;;;4963484;28;20544;-80
2022/10/16 08:49:57;;;;;;;9.00;8.80;;;17.30;99.90;;;;;;4957555;28;20520;-81
2022/10/16 08:52:30;;;;;;;8.60;8.00;;;17.30;99.90;;;;;;4959609;28;20450;-80
2022/10/16 08:54:58;;;;;;;8.57;8.27;;;17.30;99.90;;;;;;4956367;28;20519;-81
2022/10/16 08:57:27;;;;;;;8.90;8.70;;;17.30;99.90;;;;;;4960743;28;20541;-79
2022/10/16 09:00:00;;;;;;;8.70;8.30;;;17.40;99.90;;;;;;4961343;28;20539;-80
2022/10/16 09:02:35;;;;;;;9.00;8.70;;;17.50;99.90;;;;;;4960798;28;20548;-81
2022/10/16 09:05:25;;;;;;;8.50;8.30;;;17.50;99.90;;;;;;4964509;28;20560;-81
2022/10/16 09:08:03;;;;;;;9.20;9.00;;;17.80;99.90;;;;;;4961699;28;20516;-81
2022/10/16 09:10:43;;;;;;;10.20;9.80;;;18.70;49.90;;;;;;4962748;28;20570;-80
2022/10/16 09:13:20;;;;;;;10.20;9.90;;;19.30;99.90;;;;;;4958818;28;21313;-81
2022/10/16 09:15:56;;;;;;;10.57;10.13;;;20.40;1.00;;;;;;4944800;28;20463;-81
2022/10/16 09:18:33;;;;;;;10.43;10.23;;;21.40;1.00;;;;;;4961912;28;20525;-81
2022/10/16 09:21:10;;;;;;;9.80;9.50;;;23.80;1.00;;;;;;4962978;28;20461;-82
2022/10/16 09:23:39;;;;;;;8.77;8.43;;;25.60;99.90;;;;;;4962015;28;20686;-80
2022/10/16 09:26:12;;;;;;;9.50;9.10;;;26.70;99.90;;;;;;4972491;28;20541;-80
2022/10/16 09:28:40;;;;;;;7.40;7.20;;;27.00;99.90;;;;;;4963349;28;20470;-79
2022/10/16 09:31:16;;;;;;;6.03;5.50;;;26.90;99.90;;;;;;4964866;28;20454;-81
2022/10/16 09:33:48;;;;;;;6.83;6.47;;;26.10;99.90;;;;;;4961155;28;20513;-81
2022/10/16 09:36:18;;;;;;;7.07;6.67;;;25.00;99.90;;;;;;4948382;28;21002;-81
2022/10/16 09:38:46;;;;;;;6.73;6.63;;;23.50;99.90;;;;;;4973223;28;20482;-81
2022/10/16 09:41:20;;;;;;;6.37;6.23;;;22.70;1.00;;;;;;4969568;28;20493;-81
2022/10/16 09:43:53;;;;;;;6.80;6.60;;;22.00;1.00;;;;;;4969895;28;20482;-81
2022/10/16 09:46:28;;;;;;;6.40;5.90;;;21.90;1.00;;;;;;4966737;28;20491;-81
2022/10/16 09:48:57;;;;;;;7.10;6.80;;;21.90;1.00;;;;;;4969750;28;21222;-81
2022/10/16 09:51:29;;;;;;;6.20;6.00;;;22.30;1.00;;;;;;4962522;28;20467;-82
2022/10/16 09:54:00;;;;;;;6.33;5.97;;;22.40;1.00;;;;;;4967417;28;20821;-80
2022/10/16 09:56:32;;;;;;;5.93;5.53;;;22.60;1.00;;;;;;4964969;28;20447;-83
2022/10/16 09:59:02;;;;;;;5.83;5.40;;;23.40;1.00;;;;;;4961261;28;20494;-82
2022/10/16 10:01:37;;;;;;;6.30;5.80;;;23.00;1.00;;;;;;4959224;28;20462;-81
2022/10/16 10:04:06;;;;;;;5.57;5.20;;;23.60;1.00;;;;;;4967222;28;20534;-81
2022/10/16 10:06:38;;;;;;;4.30;4.10;;;25.40;99.90;;;;;;4967922;28;20487;-81
2022/10/16 10:09:17;;;;;;;4.43;4.13;;;27.20;99.90;;;;;;4969756;28;20484;-83
2022/10/16 10:11:54;;;;;;;3.77;3.67;;;30.20;99.90;;;;;;4969336;28;20462;-81
2022/10/16 10:14:36;;;;;;;3.03;2.80;;;32.50;99.90;;;;;;4967702;28;20450;-82
2022/10/16 10:17:25;;;;;;;2.70;2.50;;;32.00;99.90;;;;;;4963901;28;21165;-83
2022/10/16 10:19:56;;;;;;;2.60;2.50;;;29.50;99.90;;;;;;4963138;28;20495;-81
2022/10/16 10:22:29;;;;;;;2.53;2.33;;;27.00;99.90;;;;;;4968948;28;20499;-84
2022/10/16 10:25:12;;;;;;;2.50;2.40;;;25.60;99.90;;;;;;4971043;28;20455;-83
2022/10/16 10:27:48;;;;;;;2.73;2.60;;;24.40;99.90;;;;;;4963757;28;20459;-86
2022/10/16 10:30:23;;;;;;;2.70;2.50;;;23.80;99.90;;;;;;4969882;28;20997;-84
2022/10/16 10:33:06;;;;;;;2.77;2.67;;;23.50;99.90;;;;;;4973224;28;20462;-83
2022/10/16 10:35:44;;;;;;;2.80;2.70;;;23.30;99.90;;;;;;4967748;28;20443;-84
2022/10/16 10:38:28;;;;;;;2.47;2.33;;;23.20;99.90;;;;;;4966463;28;20478;-84
2022/10/16 10:41:06;;;;;;;2.80;2.60;;;23.10;99.90;;;;;;4971114;28;20448;-83
2022/10/16 10:43:46;;;;;;;3.37;3.07;;;23.10;99.90;;;;;;4950911;28;20450;-84
2022/10/16 10:46:21;;;;;;;2.70;2.53;;;24.30;99.90;;;;;;4948645;28;20455;-83
2022/10/16 10:49:08;;;;;;;2.43;2.33;;;27.10;99.90;;;;;;4962268;28;20489;-83
2022/10/16 10:51:45;;;;;;;2.30;2.10;;;27.20;99.90;;;;;;4971251;28;20451;-83
2022/10/16 10:54:23;;;;;;;2.97;2.80;;;26.20;99.90;;;;;;4970750;28;20950;-84
2022/10/16 10:56:58;;;;;;;2.50;2.40;;;25.40;99.90;;;;;;4975077;28;20961;-83
2022/10/16 10:59:47;;;;;;;4.83;2.00;;;29.60;99.90;;;;;;4962953;28;20491;-83
2022/10/16 11:02:24;;;;;;;3.50;2.07;;;30.60;99.90;;;;;;4972577;28;20459;-83
2022/10/16 11:05:09;;;;;;;3.47;2.17;;;30.00;99.90;;;;;;4974189;28;20473;-83
2022/10/16 11:07:41;;;;;;;2.67;2.43;;;28.80;99.90;;;;;;4953691;28;20483;-82
2022/10/16 11:10:16;;;;;;;4.23;1.93;;;27.00;99.90;;;;;;4963211;28;21018;-84
2022/10/16 11:12:48;;;;;;;1.90;1.80;;;26.10;99.90;;;;;;4969761;28;21019;-83
2022/10/16 11:15:20;;;;;;;2.33;2.20;;;25.20;99.90;;;;;;4966371;28;21059;-84
2022/10/16 11:17:52;;;;;;;2.27;2.17;;;24.80;99.90;;;;;;4975400;28;20462;-84
2022/10/16 11:20:25;;;;;;;3.97;2.07;;;24.20;99.90;;;;;;4973846;28;20502;-83
2022/10/16 11:22:58;;;;;;;3.63;2.20;;;23.90;99.90;;;;;;4970245;28;20517;-84
2022/10/16 11:25:30;;;;;;;2.60;2.50;;;23.80;99.90;;;;;;4976327;28;20459;-83
2022/10/16 11:28:04;;;;;;;2.47;2.37;;;23.70;99.90;;;;;;4971976;28;20467;-84
2022/10/16 11:30:41;;;;;;;2.50;2.30;;;23.60;99.90;;;;;;4971471;28;20471;-83
2022/10/16 11:33:31;;;;;;;2.30;2.20;;;23.50;99.90;;;;;;4974676;28;20459;-82
2022/10/16 11:36:04;;;;;;;5.03;2.50;;;23.40;99.90;;;;;;4971570;28;20447;-83
2022/10/16 11:38:40;;;;;;;2.03;1.93;;;23.50;99.90;;;;;;4973567;28;20474;-83
2022/10/16 11:41:21;;;;;;;2.20;2.10;;;23.40;99.90;;;;;;4970247;28;20549;-83
2022/10/16 11:44:01;;;;;;;3.40;2.70;;;23.30;99.90;;;;;;4970234;28;20447;-84
2022/10/16 11:46:31;;;;;;;2.20;2.10;;;23.40;99.90;;;;;;4965027;28;20447;-82
2022/10/16 11:49:09;;;;;;;2.40;2.30;;;23.30;99.90;;;;;;4972056;28;20462;-84
2022/10/16 11:51:41;;;;;;;1.90;1.80;;;23.30;99.90;;;;;;4974509;28;20459;-83
2022/10/16 11:54:21;;;;;;;2.70;2.50;;;23.40;99.90;;;;;;4971333;28;20451;-82
2022/10/16 11:56:56;;;;;;;2.40;2.23;;;23.50;99.90;;;;;;4962215;28;20968;-83
2022/10/16 11:59:32;;;;;;;2.50;2.37;;;23.60;99.90;;;;;;4972118;28;20490;-84
2022/10/16 12:02:17;;;;;;;2.00;1.90;;;23.60;99.90;;;;;;4970247;28;21246;-85
2022/10/16 12:04:51;;;;;;;1.80;1.70;;;23.60;99.90;;;;;;4963259;28;20509;-84
2022/10/16 12:07:24;;;;;;;2.00;1.90;;;23.50;99.90;;;;;;4973416;28;20466;-84
2022/10/16 12:09:52;;;;;;;2.20;2.10;;;23.30;99.90;;;;;;4971881;28;20464;-84
2022/10/16 12:12:38;;;;;;;1.80;1.70;;;23.30;99.90;;;;;;4968545;28;20455;-84
2022/10/16 12:15:21;;;;;;;1.80;1.70;;;23.40;99.90;;;;;;4965902;28;20506;-82
2022/10/16 12:18:23;;;;;;;3.90;3.60;;;23.40;99.90;;;;;;4964745;28;20455;-83
2022/10/16 12:20:58;;;;;;;1.90;1.80;;;23.40;99.90;;;;;;4976367;28;21076;-82
2022/10/16 12:23:26;;;;;;;2.50;1.90;;;23.30;99.90;;;;;;4961284;28;20464;-83
2022/10/16 12:25:57;;;;;;;1.97;1.87;;;23.30;99.90;;;;;;4949348;28;20462;-83
2022/10/16 12:28:30;;;;;;;4.30;2.40;;;23.30;99.90;;;;;;4959142;28;20491;-84
2022/10/16 12:31:00;;;;;;;1.90;1.80;;;23.40;99.90;;;;;;4961586;28;20466;-84
2022/10/16 12:33:30;;;;;;;2.77;1.60;;;23.50;99.90;;;;;;4962943;28;20452;-82
2022/10/16 12:36:01;;;;;;;1.60;1.50;;;23.60;99.90;;;;;;4964655;28;20832;-83
2022/10/16 12:38:36;;;;;;;1.43;1.43;;;23.60;99.90;;;;;;4963437;28;20454;-83
2022/10/16 12:41:08;;;;;;;1.60;1.50;;;23.60;99.90;;;;;;4967330;28;20462;-82
2022/10/16 12:43:42;;;;;;;1.60;1.50;;;23.50;99.90;;;;;;4967590;28;21009;-81
2022/10/16 12:46:34;;;;;;;1.70;1.60;;;23.40;99.90;;;;;;4961464;28;20470;-82
2022/10/16 12:49:36;;;;;;;3.63;1.83;;;23.30;99.90;;;;;;4965523;28;20553;-82
2022/10/16 12:52:05;;;;;;;1.93;1.83;;;23.20;99.90;;;;;;4953222;28;20474;-83
2022/10/16 12:54:38;;;;;;;3.83;2.00;;;23.10;99.90;;;;;;4961135;28;20464;-83
2022/10/16 12:57:25;;;;;;;3.60;3.30;;;23.00;99.90;;;;;;4971486;28;20465;-82
2022/10/16 13:00:02;;;;;;;1.77;1.77;;;23.00;99.90;;;;;;4965630;28;20495;-83
2022/10/16 13:03:00;;;;;;;2.67;2.33;;;22.90;99.90;;;;;;4965203;28;20463;-83
2022/10/16 13:05:40;;;;;;;1.90;1.80;;;22.90;99.90;;;;;;4965830;28;20511;-82
2022/10/16 13:08:30;;;;;;;2.10;1.90;;;22.90;99.90;;;;;;4959712;28;20506;-83
2022/10/16 13:11:06;;;;;;;2.27;2.07;;;22.90;99.90;;;;;;4962406;28;20459;-83
2022/10/16 13:13:57;;;;;;;9.50;2.87;;;23.00;99.90;;;;;;4964738;28;20459;-84
2022/10/16 13:16:35;;;;;;;2.33;2.23;;;22.90;99.90;;;;;;4962270;28;20788;-82
2022/10/16 13:19:12;;;;;;;2.20;2.10;;;22.90;99.90;;;;;;4958502;28;20483;-82